| time (UTC) | temp C | wind direction | speed KPH | gust KPH | rain 1hr cm | rain 24hr cm | rain mn cm | humidity % | barometer mb |
| 20260508115642 | 19 | 248 | 3.2 | 3.2 | 0.00 | 0.36 | 0.00 | 55 | 1011.6 |
| 20260508114640 | 19 | 338 | 9.7 | 9.7 | 0.00 | 0.36 | 0.00 | 55 | 1011.7 |
| 20260508113640 | 18 | 292 | 8.0 | 8.0 | 0.00 | 0.36 | 0.00 | 55 | 1012.0 |
| 20260508112640 | 18 | 315 | 12.9 | 12.9 | 0.00 | 0.36 | 0.00 | 55 | 1012.1 |
| 20260508111641 | 18 | 270 | 9.7 | 9.7 | 0.00 | 0.36 | 0.00 | 57 | 1012.1 |
| 20260508105640 | 17 | 270 | 6.4 | 6.4 | 0.00 | 0.36 | 0.00 | 59 | 1012.4 |
| 20260508104640 | 17 | 315 | 9.7 | 9.7 | 0.00 | 0.36 | 0.00 | 62 | 1012.5 |
| 20260508103639 | 16 | 270 | 14.5 | 14.5 | 0.00 | 0.36 | 0.00 | 65 | 1012.5 |
| 20260508102640 | 16 | 270 | 12.9 | 12.9 | 0.00 | 0.36 | 0.00 | 65 | 1012.7 |
| 20260508101640 | 16 | 315 | 14.5 | 14.5 | 0.00 | 0.36 | 0.00 | 65 | 1012.6 |
| 20260508100640 | 16 | 68 | 12.9 | 12.9 | 0.00 | 0.36 | 0.00 | 64 | 1012.6 |
| 20260508095640 | 17 | 315 | 14.5 | 14.5 | 0.00 | 0.36 | 0.00 | 64 | 1012.5 |
| 20260508094642 | 17 | 270 | 14.5 | 14.5 | 0.00 | 0.36 | 0.00 | 62 | 1012.3 |
| 20260508092640 | 16 | 292 | 11.3 | 11.3 | 0.00 | 0.36 | 0.00 | 64 | 1012.3 |
| 20260508090639 | 17 | 292 | 9.7 | 9.7 | 0.00 | 0.36 | 0.00 | 61 | 1012.1 |
| 20260508085640 | 17 | 270 | 3.2 | 3.2 | 0.00 | 0.36 | 0.00 | 60 | 1012.0 |
| 20260508083642 | 17 | 315 | 8.0 | 8.0 | 0.00 | 0.36 | 0.00 | 62 | 1011.9 |
| 20260508081641 | 16 | 22 | 4.8 | 4.8 | 0.00 | 0.36 | 0.00 | 63 | 1011.9 |
| 20260508074640 | 17 | 68 | 3.2 | 3.2 | 0.00 | 0.36 | 0.00 | 63 | 1012.1 |
| 20260508073640 | 16 | 68 | 8.0 | 8.0 | 0.00 | 0.36 | 0.00 | 64 | 1012.1 |
| 20260508072640 | 16 | 112 | 8.0 | 8.0 | 0.00 | 0.36 | 0.00 | 67 | 1012.2 |
| 20260508070640 | 16 | 90 | 6.4 | 6.4 | 0.00 | 0.36 | 0.00 | 69 | 1012.2 |
| 20260508065640 | 14 | 158 | 3.2 | 3.2 | 0.00 | 0.36 | 0.00 | 71 | 1012.1 |
| 20260508064640 | 13 | 158 | 3.2 | 3.2 | 0.00 | 0.36 | 0.00 | 74 | 1011.8 |
| 20260508063640 | 13 | 180 | 3.2 | 3.2 | 0.00 | 0.36 | 0.00 | 76 | 1011.6 |
| 20260508061641 | 13 | 112 | 6.4 | 6.4 | 0.00 | 0.36 | 0.00 | 82 | 1011.2 |
| 20260508060641 | 13 | 158 | 3.2 | 3.2 | 0.00 | 0.36 | 0.00 | 78 | 1011.5 |
| 20260508054641 | 12 | 158 | 1.6 | 1.6 | 0.00 | 0.36 | 0.00 | 77 | 1011.7 |
| 20260508052640 | 13 | 158 | 6.4 | 6.4 | 0.00 | 0.36 | 0.00 | 76 | 1011.6 |
| 20260508050639 | 13 | 158 | 3.2 | 3.2 | 0.00 | 0.36 | 0.00 | 77 | 1011.5 |
| 20260508045640 | 13 | 158 | 0.0 | 0.0 | 0.00 | 0.36 | 0.00 | 77 | 1011.5 |
| 20260508044641 | 13 | 158 | 0.0 | 0.0 | 0.00 | 0.36 | 0.00 | 77 | 1011.2 |
| 20260508043641 | 12 | 158 | 0.0 | 0.0 | 0.00 | 0.36 | 0.00 | 78 | 1011.5 |
| 20260508042641 | 13 | 158 | 0.0 | 0.0 | 0.00 | 0.36 | 0.00 | 79 | 1011.5 |
| 20260508041641 | 13 | 158 | 3.2 | 3.2 | 0.00 | 0.36 | 0.00 | 76 | 1011.3 |
| 20260508040640 | 13 | 158 | 3.2 | 3.2 | 0.00 | 0.36 | 0.00 | 75 | 1011.4 |
| 20260508035641 | 12 | 158 | 0.0 | 0.0 | 0.00 | 0.36 | 0.00 | 76 | 1011.7 |
| 20260508034640 | 13 | 158 | 0.0 | 0.0 | 0.00 | 0.36 | 0.00 | 76 | 1011.4 |
| 20260508033641 | 13 | 158 | 0.0 | 0.0 | 0.00 | 0.36 | 0.00 | 76 | 1011.4 |
| 20260508032641 | 13 | 158 | 4.8 | 4.8 | 0.00 | 0.36 | 0.00 | 76 | 1011.3 |
| 20260508030641 | 13 | 158 | 0.0 | 0.0 | 0.00 | 0.36 | 0.00 | 74 | 1011.1 |
| 20260508025640 | 13 | 158 | 3.2 | 3.2 | 0.00 | 0.36 | 0.00 | 74 | 1011.3 |
| 20260508024641 | 13 | 158 | 0.0 | 0.0 | 0.00 | 0.36 | 0.00 | 75 | 1011.3 |
| 20260508023641 | 13 | 158 | 1.6 | 1.6 | 0.00 | 0.36 | 0.00 | 75 | 1011.1 |
| 20260508022641 | 13 | 158 | 1.6 | 1.6 | 0.00 | 0.36 | 0.00 | 74 | 1011.0 |
| 20260508021639 | 13 | 158 | 1.6 | 1.6 | 0.00 | 0.36 | 0.00 | 73 | 1011.0 |
| 20260508020640 | 14 | 158 | 3.2 | 3.2 | 0.00 | 0.36 | 0.00 | 74 | 1010.9 |
| 20260508015640 | 14 | 135 | 4.8 | 4.8 | 0.00 | 0.36 | 0.00 | 72 | 1010.7 |
| 20260508014641 | 14 | 112 | 8.0 | 8.0 | 0.00 | 0.36 | 0.00 | 71 | 1010.7 |
| 20260508013640 | 14 | 112 | 8.0 | 8.0 | 0.00 | 0.36 | 0.00 | 74 | 1010.7 |
| 20260508011641 | 13 | 112 | 3.2 | 3.2 | 0.00 | 0.36 | 0.00 | 78 | 1011.2 |
| 20260508005641 | 13 | 112 | 8.0 | 8.0 | 0.00 | 0.36 | 0.00 | 79 | 1011.7 |
| 20260508003640 | 14 | 158 | 8.0 | 8.0 | 0.00 | 0.36 | 0.00 | 76 | 1012.0 |
| 20260508001641 | 15 | 270 | 3.2 | 3.2 | 0.00 | 0.36 | 0.00 | 72 | 1012.3 |
| 20260508000641 | 15 | 270 | 3.2 | 3.2 | 0.00 | 0.36 | 0.00 | 68 | 1012.3 |
| 20260507235640 | 15 | 270 | 4.8 | 4.8 | 0.36 | 0.36 | 0.36 | 63 | 1012.2 |
| 20260507232640 | 16 | 202 | 3.2 | 3.2 | 0.36 | 0.36 | 0.36 | 65 | 1012.2 |
| 20260507230641 | 15 | 225 | 3.2 | 3.2 | 0.36 | 0.36 | 0.36 | 64 | 1012.1 |
| 20260507225640 | 15 | 180 | 8.0 | 8.0 | 0.00 | 0.00 | 0.00 | 67 | 1012.1 |
| 20260507224640 | 15 | 180 | 4.8 | 4.8 | 0.00 | 0.36 | 0.36 | 68 | 1012.2 |
| 20260507222641 | 16 | 158 | 3.2 | 3.2 | 0.00 | 0.36 | 0.36 | 66 | 1012.5 |
| 20260507221641 | 16 | 158 | 3.2 | 3.2 | 0.00 | 0.36 | 0.36 | 64 | 1012.6 |
| 20260507220640 | 16 | 158 | 8.0 | 8.0 | 0.00 | 0.36 | 0.36 | 64 | 1012.8 |
| 20260507213640 | 16 | 202 | 3.2 | 3.2 | 0.00 | 0.36 | 0.36 | 62 | 1012.8 |
| 20260507212640 | 16 | 248 | 3.2 | 3.2 | 0.00 | 0.36 | 0.36 | 62 | 1012.8 |
| 20260507211641 | 16 | 202 | 6.4 | 6.4 | 0.00 | 0.36 | 0.36 | 62 | 1012.7 |
| 20260507210641 | 16 | 202 | 3.2 | 3.2 | 0.00 | 0.36 | 0.36 | 62 | 1012.5 |
| 20260507205642 | 16 | 180 | 11.3 | 11.3 | 0.00 | 0.36 | 0.36 | 62 | 1012.3 |
| 20260507204640 | 16 | 158 | 3.2 | 3.2 | 0.00 | 0.36 | 0.36 | 60 | 1012.1 |
| 20260507203640 | 17 | 158 | 3.2 | 3.2 | 0.00 | 0.36 | 0.36 | 60 | 1012.0 |
| 20260507202640 | 17 | 158 | 3.2 | 3.2 | 0.00 | 0.36 | 0.36 | 59 | 1011.8 |
| 20260507201641 | 17 | 135 | 3.2 | 3.2 | 0.00 | 0.36 | 0.36 | 58 | 1011.7 |
| 20260507200640 | 17 | 180 | 6.4 | 6.4 | 0.00 | 0.36 | 0.36 | 59 | 1011.5 |
| 20260507195641 | 16 | 180 | 8.0 | 8.0 | 0.00 | 0.36 | 0.36 | 58 | 1011.4 |
| 20260507193640 | 16 | 180 | 8.0 | 8.0 | 0.00 | 0.36 | 0.36 | 59 | 1011.0 |
| 20260507191640 | 16 | 112 | 8.0 | 8.0 | 0.00 | 0.36 | 0.36 | 56 | 1010.7 |
| 20260507190641 | 16 | 112 | 4.8 | 4.8 | 0.00 | 0.36 | 0.36 | 60 | 1010.6 |
| 20260507185640 | 16 | 112 | 8.0 | 8.0 | 0.00 | 0.36 | 0.36 | 60 | 1010.6 |
| 20260507184639 | 17 | 158 | 6.4 | 6.4 | 0.00 | 0.36 | 0.36 | 61 | 1010.5 |
| 20260507183640 | 17 | 248 | 1.6 | 1.6 | 0.00 | 0.36 | 0.36 | 55 | 1010.3 |
| 20260507182640 | 17 | 248 | 0.0 | 0.0 | 0.00 | 0.36 | 0.36 | 53 | 1010.1 |
| 20260507181640 | 17 | 68 | 0.0 | 0.0 | 0.00 | 0.36 | 0.36 | 52 | 1010.1 |
| 20260507180641 | 18 | 315 | 6.4 | 6.4 | 0.00 | 0.36 | 0.36 | 50 | 1009.9 |
| 20260507175641 | 20 | 0 | 9.7 | 9.7 | 0.00 | 0.36 | 0.36 | 48 | 1009.7 |
| 20260507174640 | 18 | 180 | 0.0 | 0.0 | 0.00 | 0.36 | 0.36 | 45 | 1009.5 |
| 20260507173640 | 18 | 248 | 8.0 | 8.0 | 0.00 | 0.36 | 0.36 | 45 | 1009.7 |
| 20260507171642 | 18 | 270 | 12.9 | 12.9 | 0.00 | 0.36 | 0.36 | 45 | 1009.4 |
| 20260507170640 | 18 | 270 | 12.9 | 12.9 | 0.00 | 0.36 | 0.36 | 45 | 1009.4 |
| 20260507165640 | 18 | 270 | 12.9 | 12.9 | 0.00 | 0.36 | 0.36 | 45 | 1009.4 |
| 20260507164640 | 19 | 270 | 11.3 | 11.3 | 0.00 | 0.36 | 0.36 | 51 | 1009.2 |
| 20260507163640 | 20 | 315 | 24.1 | 24.1 | 0.00 | 0.36 | 0.36 | 48 | 1009.1 |
| 20260507162640 | 20 | 90 | 3.2 | 3.2 | 0.00 | 0.36 | 0.36 | 48 | 1009.2 |
| 20260507161641 | 19 | 90 | 6.4 | 6.4 | 0.00 | 0.36 | 0.36 | 48 | 1009.1 |
| 20260507160640 | 19 | 90 | 8.0 | 8.0 | 0.00 | 0.36 | 0.36 | 49 | 1009.0 |
| 20260507155641 | 19 | 112 | 4.8 | 4.8 | 0.00 | 0.36 | 0.36 | 50 | 1009.0 |
| 20260507153641 | 19 | 112 | 8.0 | 8.0 | 0.00 | 0.36 | 0.36 | 47 | 1009.1 |
| 20260507151641 | 18 | 112 | 3.2 | 3.2 | 0.00 | 0.36 | 0.36 | 58 | 1009.2 |
| 20260507150640 | 20 | 135 | 11.3 | 11.3 | 0.00 | 0.36 | 0.36 | 56 | 1009.3 |
| 20260507145641 | 20 | 135 | 8.0 | 8.0 | 0.00 | 0.36 | 0.36 | 56 | 1009.4 |
| 20260507144642 | 19 | 158 | 8.0 | 8.0 | 0.00 | 0.36 | 0.36 | 59 | 1009.8 |
| 20260507143639 | 19 | 158 | 8.0 | 8.0 | 0.00 | 0.36 | 0.36 | 59 | 1009.8 |
| 20260507142640 | 19 | 158 | 9.7 | 9.7 | 0.28 | 0.36 | 0.36 | 55 | 1009.9 |
| 20260507141641 | 19 | 180 | 3.2 | 3.2 | 0.33 | 0.36 | 0.36 | 56 | 1010.2 |
| 20260507140640 | 17 | 180 | 8.0 | 8.0 | 0.36 | 0.36 | 0.36 | 57 | 1010.3 |
| 20260507135641 | 16 | 158 | 8.0 | 8.0 | 0.36 | 0.36 | 0.36 | 66 | 1010.3 |
| 20260507134642 | 15 | 135 | 11.3 | 11.3 | 0.36 | 0.36 | 0.36 | 71 | 1010.5 |
| 20260507132640 | 17 | 180 | 11.3 | 11.3 | 0.05 | 0.05 | 0.05 | 68 | 1010.7 |
| 20260507131640 | 20 | 112 | 8.0 | 8.0 | 0.00 | 0.00 | 0.00 | 66 | 1010.6 |
| 20260507130640 | 20 | 90 | 4.8 | 4.8 | 0.00 | 0.00 | 0.00 | 44 | 1010.2 |
| 20260507125641 | 20 | 112 | 8.0 | 8.0 | 0.00 | 0.00 | 0.00 | 41 | 1010.0 |
| 20260507124641 | 20 | 45 | 1.6 | 1.6 | 0.00 | 0.00 | 0.00 | 43 | 1010.1 |
| 20260507123641 | 20 | 270 | 11.3 | 11.3 | 0.00 | 0.00 | 0.00 | 42 | 1010.2 |
| 20260507122640 | 20 | 68 | 8.0 | 8.0 | 0.00 | 0.00 | 0.00 | 42 | 1010.4 |
| 20260507121642 | 20 | 0 | 8.0 | 8.0 | 0.00 | 0.00 | 0.00 | 41 | 1010.4 |
| 20260507120640 | 20 | 270 | 16.1 | 16.1 | 0.00 | 0.00 | 0.00 | 42 | 1010.6 |